Terminal Aerodrome Forecast
Issued by NWS Shreveport, LA

Home | Current Version | Previous Version | Text Only | Print | Product List | Glossary On
Versions: 1 2 3 4 5 6 7 8 9 10 11 12 13 14
000
FTUS44 KSHV 272328
TAFTYR
TAF
KTYR 272328Z 2800/2824 VRB04KT P6SM SKC
      TEMPO 2800/2803 26006KT
     FM280900 06005KT P6SM BKN020
      TEMPO 2810/2814 OVC010
     FM281500 15008KT P6SM BKN030
     FM281900 15012KT P6SM SCT040=

USA.gov is the U.S. government's official web portal to all federal, state and local government web resources and services.